createdAt,value
2022-09-11T00:00:54.066Z,3.30
2022-09-11T00:03:23.181Z,3.03
2022-09-11T00:05:50.725Z,3.60
2022-09-11T00:08:19.685Z,3.30
2022-09-11T00:10:48.215Z,3.20
2022-09-11T00:13:19.505Z,3.30
2022-09-11T00:15:47.255Z,3.40
2022-09-11T00:18:18.155Z,3.43
2022-09-11T00:20:49.443Z,3.33
2022-09-11T00:23:17.658Z,3.60
2022-09-11T00:25:46.231Z,3.60
2022-09-11T00:28:15.922Z,3.90
2022-09-11T00:30:44.720Z,3.60
2022-09-11T00:33:12.873Z,3.63
2022-09-11T00:35:42.383Z,4.03
2022-09-11T00:38:15.370Z,4.00
2022-09-11T00:40:48.491Z,4.70
2022-09-11T00:43:17.617Z,4.23
2022-09-11T00:45:47.103Z,4.03
2022-09-11T00:48:20.103Z,4.30
2022-09-11T00:50:49.685Z,4.77
2022-09-11T00:53:18.558Z,4.50
2022-09-11T00:55:50.643Z,3.60
2022-09-11T00:58:21.222Z,4.47
2022-09-11T01:00:49.123Z,4.43
2022-09-11T01:03:17.044Z,4.60
2022-09-11T01:05:44.677Z,4.93
2022-09-11T01:08:14.438Z,5.00
2022-09-11T01:10:51.567Z,4.97
2022-09-11T01:13:27.852Z,4.73
2022-09-11T01:16:03.696Z,4.60
2022-09-11T01:18:33.511Z,4.70
2022-09-11T01:21:16.545Z,4.67
2022-09-11T01:24:02.040Z,5.40
2022-09-11T01:26:44.024Z,5.43
2022-09-11T01:29:18.881Z,5.80
2022-09-11T01:31:52.702Z,6.10
2022-09-11T01:34:23.186Z,6.07
2022-09-11T01:36:54.313Z,6.03
2022-09-11T01:39:25.438Z,6.60
2022-09-11T01:42:02.208Z,6.37
2022-09-11T01:44:34.880Z,7.23
2022-09-11T01:47:03.066Z,7.50
2022-09-11T01:49:36.088Z,8.17
2022-09-11T01:52:07.693Z,7.53
2022-09-11T01:54:39.408Z,8.10
2022-09-11T01:57:09.904Z,5.97
2022-09-11T01:59:43.978Z,5.83
2022-09-11T02:02:14.125Z,5.90
2022-09-11T02:04:45.838Z,5.50
2022-09-11T02:07:16.059Z,5.60
2022-09-11T02:09:53.571Z,6.23
2022-09-11T02:12:24.731Z,6.27
2022-09-11T02:14:54.670Z,7.03
2022-09-11T02:17:25.533Z,6.43
2022-09-11T02:19:54.660Z,7.00
2022-09-11T02:22:22.215Z,5.97
2022-09-11T02:24:49.815Z,5.83
2022-09-11T02:27:19.528Z,5.57
2022-09-11T02:29:47.186Z,5.47
2022-09-11T02:32:16.348Z,5.63
2022-09-11T02:34:45.280Z,6.10
2022-09-11T02:37:21.194Z,6.47
2022-09-11T02:40:01.173Z,6.50
2022-09-11T02:42:43.837Z,6.43
2022-09-11T02:45:19.872Z,6.70
2022-09-11T02:47:57.773Z,7.23
2022-09-11T02:50:30.287Z,6.60
2022-09-11T02:53:01.804Z,7.23
2022-09-11T02:55:35.808Z,6.10
2022-09-11T02:58:08.237Z,6.30
2022-09-11T03:00:36.149Z,6.33
2022-09-11T03:03:05.334Z,5.87
2022-09-11T03:05:32.888Z,6.53
2022-09-11T03:08:04.265Z,7.40
2022-09-11T03:10:32.001Z,7.80
2022-09-11T03:12:59.721Z,8.47
2022-09-11T03:15:27.487Z,8.60
2022-09-11T03:17:54.993Z,9.37
2022-09-11T03:20:23.863Z,10.47
2022-09-11T03:22:51.365Z,10.13
2022-09-11T03:25:18.961Z,10.57
2022-09-11T03:27:46.489Z,10.93
2022-09-11T03:30:14.332Z,11.10
2022-09-11T03:32:41.843Z,11.20
2022-09-11T03:35:10.203Z,10.93
2022-09-11T03:37:39.061Z,10.90
2022-09-11T03:40:07.961Z,10.67
2022-09-11T03:42:35.549Z,10.57
2022-09-11T03:45:03.143Z,9.97
2022-09-11T03:47:30.712Z,10.07
2022-09-11T03:49:58.252Z,9.63
2022-09-11T03:52:25.880Z,9.70
2022-09-11T03:54:54.733Z,10.00
2022-09-11T03:57:22.253Z,9.73
2022-09-11T03:59:49.773Z,8.30
2022-09-11T04:02:18.464Z,8.13
2022-09-11T04:04:46.010Z,7.47
2022-09-11T04:07:13.525Z,8.63
2022-09-11T04:09:41.118Z,7.40
2022-09-11T04:12:11.234Z,7.87
2022-09-11T04:14:38.797Z,8.67
2022-09-11T04:17:08.058Z,9.40
2022-09-11T04:19:35.736Z,10.00
2022-09-11T04:22:03.852Z,9.57
2022-09-11T04:24:31.558Z,9.70
2022-09-11T04:27:00.992Z,10.80
2022-09-11T04:29:30.057Z,11.20
2022-09-11T04:31:57.644Z,11.37
2022-09-11T04:34:25.319Z,10.73
2022-09-11T04:36:55.308Z,12.20
2022-09-11T04:39:23.132Z,12.37
2022-09-11T04:41:50.679Z,13.13
2022-09-11T04:44:20.609Z,12.03
2022-09-11T04:46:49.487Z,13.60
2022-09-11T04:49:17.044Z,12.37
2022-09-11T04:51:45.143Z,12.27
2022-09-11T04:54:14.660Z,12.07
2022-09-11T04:56:42.234Z,9.17
2022-09-11T04:59:13.725Z,9.30
2022-09-11T05:01:41.437Z,9.00
2022-09-11T05:04:12.696Z,9.37
2022-09-11T05:06:40.357Z,10.03
2022-09-11T05:09:09.512Z,8.80
2022-09-11T05:11:38.271Z,8.27
2022-09-11T05:14:06.021Z,9.00
2022-09-11T05:16:34.501Z,9.70
2022-09-11T05:19:03.883Z,9.90
2022-09-11T05:21:33.214Z,9.47
2022-09-11T05:24:01.919Z,8.70
2022-09-11T05:26:31.114Z,8.90
2022-09-11T05:29:00.079Z,8.43
2022-09-11T05:31:28.808Z,8.83
2022-09-11T05:33:57.260Z,7.77
2022-09-11T05:36:26.243Z,9.33
2022-09-11T05:38:55.458Z,8.17
2022-09-11T05:41:24.468Z,8.13
2022-09-11T05:43:52.463Z,8.77
2022-09-11T05:46:21.140Z,8.20
2022-09-11T05:48:48.952Z,8.60
2022-09-11T05:51:18.504Z,8.70
2022-09-11T05:53:46.151Z,8.20
2022-09-11T05:56:16.750Z,8.40
2022-09-11T05:58:44.743Z,8.10
2022-09-11T06:01:13.636Z,8.27
2022-09-11T06:03:41.622Z,7.93
2022-09-11T06:06:11.679Z,7.90
2022-09-11T06:08:40.333Z,6.90
2022-09-11T06:11:08.932Z,7.47
2022-09-11T06:13:39.801Z,7.97
2022-09-11T06:16:11.833Z,7.37
2022-09-11T06:18:40.983Z,8.23
2022-09-11T06:21:11.982Z,7.17
2022-09-11T06:23:40.390Z,7.73
2022-09-11T06:26:09.906Z,7.60
2022-09-11T06:28:39.957Z,6.87
2022-09-11T06:31:09.041Z,7.43
2022-09-11T06:33:38.005Z,6.93
2022-09-11T06:36:07.422Z,7.37
2022-09-11T06:38:35.432Z,7.53
2022-09-11T06:41:04.330Z,6.37
2022-09-11T06:43:32.399Z,6.10
2022-09-11T06:46:06.127Z,6.47
2022-09-11T06:48:33.841Z,6.60
2022-09-11T06:51:04.454Z,6.97
2022-09-11T06:53:32.023Z,6.63
2022-09-11T06:56:00.609Z,6.77
2022-09-11T06:58:29.191Z,7.13
2022-09-11T07:00:56.858Z,6.73
2022-09-11T07:03:25.803Z,7.13
2022-09-11T07:05:53.419Z,6.67
2022-09-11T07:08:24.853Z,6.23
2022-09-11T07:10:52.771Z,6.73
2022-09-11T07:13:20.427Z,6.90
2022-09-11T07:15:49.192Z,7.20
2022-09-11T07:18:18.202Z,6.80
2022-09-11T07:20:47.102Z,6.80
2022-09-11T07:23:14.609Z,7.00
2022-09-11T07:25:42.161Z,6.33
2022-09-11T07:28:12.203Z,7.17
2022-09-11T07:30:40.399Z,6.93
2022-09-11T07:33:07.962Z,6.37
2022-09-11T07:35:38.022Z,6.13
2022-09-11T07:38:06.922Z,6.93
2022-09-11T07:40:34.486Z,7.13
2022-09-11T07:43:02.324Z,6.73
2022-09-11T07:45:30.016Z,7.20
2022-09-11T07:47:57.684Z,8.00
2022-09-11T07:50:25.283Z,7.10
2022-09-11T07:52:53.080Z,7.10
2022-09-11T07:55:21.960Z,7.77
2022-09-11T07:57:50.516Z,7.83
2022-09-11T08:00:18.261Z,7.83
2022-09-11T08:02:45.825Z,7.67
2022-09-11T08:05:13.381Z,7.63
2022-09-11T08:07:40.957Z,7.57
2022-09-11T08:10:26.690Z,6.53
2022-09-11T08:12:59.866Z,8.10
2022-09-11T08:15:27.856Z,7.23
2022-09-11T08:17:55.455Z,7.10
2022-09-11T08:20:23.018Z,7.17
2022-09-11T08:22:50.573Z,7.30
2022-09-11T08:25:18.195Z,7.27
2022-09-11T08:27:45.768Z,7.87
2022-09-11T08:30:14.804Z,7.10
2022-09-11T08:32:42.389Z,7.77
2022-09-11T08:35:10.344Z,8.30
2022-09-11T08:37:37.900Z,8.20
2022-09-11T08:40:06.528Z,8.43
2022-09-11T08:42:36.671Z,8.23
2022-09-11T08:45:06.687Z,8.03
2022-09-11T08:47:37.157Z,8.57
2022-09-11T08:50:08.636Z,7.53
2022-09-11T08:52:36.875Z,7.60
2022-09-11T08:55:06.241Z,7.00
2022-09-11T08:57:40.590Z,7.23
2022-09-11T09:00:15.213Z,7.20
2022-09-11T09:03:19.593Z,7.30
2022-09-11T09:05:53.412Z,5.27
2022-09-11T09:08:39.336Z,6.97
2022-09-11T09:11:20.361Z,6.43
2022-09-11T09:14:17.757Z,6.60
2022-09-11T09:16:51.734Z,6.97
2022-09-11T09:19:24.904Z,7.17
2022-09-11T09:22:02.356Z,6.53
2022-09-11T09:24:33.198Z,6.67
2022-09-11T09:27:05.265Z,6.70
2022-09-11T09:29:36.839Z,6.20
2022-09-11T09:32:06.795Z,7.20
2022-09-11T09:34:38.382Z,6.67
2022-09-11T09:37:08.497Z,5.70
2022-09-11T09:39:37.245Z,6.67
2022-09-11T09:42:31.363Z,6.27
2022-09-11T09:45:15.481Z,6.33
2022-09-11T09:47:44.606Z,5.77
2022-09-11T09:50:19.585Z,7.20
2022-09-11T09:52:47.594Z,7.07
2022-09-11T09:55:17.043Z,6.00
2022-09-11T09:57:45.148Z,5.87
2022-09-11T10:00:19.734Z,5.63
2022-09-11T10:02:53.061Z,5.77
2022-09-11T10:05:26.946Z,5.43
2022-09-11T10:07:56.735Z,5.90
2022-09-11T10:10:27.762Z,5.80
2022-09-11T10:13:07.794Z,6.23
2022-09-11T10:15:44.137Z,6.17
2022-09-11T10:18:35.845Z,5.73
2022-09-11T10:21:21.128Z,6.13
2022-09-11T10:23:52.438Z,6.23
2022-09-11T10:26:24.676Z,5.83
2022-09-11T10:28:52.982Z,5.93
2022-09-11T10:31:22.814Z,5.00
2022-09-11T10:33:53.306Z,5.93
2022-09-11T10:36:25.085Z,6.13
2022-09-11T10:38:53.045Z,5.70
2022-09-11T10:41:22.635Z,5.00
2022-09-11T10:43:53.922Z,5.33
2022-09-11T10:46:30.025Z,5.00
2022-09-11T10:48:59.659Z,4.90
2022-09-11T10:51:30.744Z,5.03
2022-09-11T10:54:04.862Z,4.50
2022-09-11T10:56:34.891Z,4.93
2022-09-11T10:59:06.410Z,5.00
2022-09-11T11:01:34.066Z,5.20
2022-09-11T11:04:01.667Z,4.37
2022-09-11T11:06:43.397Z,4.00
2022-09-11T11:09:27.697Z,5.07
2022-09-11T11:12:10.884Z,5.10
2022-09-11T11:15:00.822Z,4.60
2022-09-11T11:17:37.548Z,4.43
2022-09-11T11:20:18.054Z,5.17
2022-09-11T11:23:01.770Z,3.67
2022-09-11T11:25:36.647Z,4.77
2022-09-11T11:28:15.168Z,3.93
2022-09-11T11:30:50.648Z,4.40
2022-09-11T11:33:28.856Z,4.97
2022-09-11T11:36:02.911Z,4.40
2022-09-11T11:38:39.389Z,4.43
2022-09-11T11:41:10.473Z,4.97
2022-09-11T11:43:40.752Z,4.33
2022-09-11T11:46:15.525Z,4.53
2022-09-11T11:48:47.402Z,4.43
2022-09-11T11:51:18.810Z,3.97
2022-09-11T11:53:55.213Z,4.03
2022-09-11T11:56:29.808Z,4.37
2022-09-11T11:58:59.952Z,4.77
2022-09-11T12:01:34.064Z,4.87
2022-09-11T12:04:06.202Z,4.73
2022-09-11T12:06:33.826Z,4.57
2022-09-11T12:09:03.570Z,4.13
2022-09-11T12:11:33.030Z,4.63
2022-09-11T12:14:00.912Z,3.80
2022-09-11T12:16:31.762Z,4.57
2022-09-11T12:19:08.494Z,4.10
2022-09-11T12:21:41.214Z,4.00
2022-09-11T12:24:21.071Z,4.53
2022-09-11T12:26:49.136Z,3.67
2022-09-11T12:29:49.462Z,3.85
2022-09-11T12:32:41.832Z,3.72
2022-09-11T12:35:25.768Z,4.00
2022-09-11T12:37:58.323Z,4.22
2022-09-11T12:40:33.207Z,3.72
2022-09-11T12:43:18.004Z,4.03
2022-09-11T12:45:47.745Z,3.50
2022-09-11T12:48:17.496Z,3.80
2022-09-11T12:50:52.703Z,2.78
2022-09-11T12:53:24.815Z,3.30
2022-09-11T12:55:58.069Z,4.10
2022-09-11T12:58:33.969Z,3.03
2022-09-11T13:01:06.194Z,3.50
2022-09-11T13:03:34.134Z,3.28
2022-09-11T13:06:03.935Z,3.33
2022-09-11T13:08:34.590Z,3.30
2022-09-11T13:11:38.278Z,3.05
2022-09-11T13:14:06.853Z,3.55
2022-09-11T13:16:35.674Z,3.30
2022-09-11T13:19:11.991Z,3.60
2022-09-11T13:21:41.694Z,3.50
2022-09-11T13:24:24.399Z,3.55
2022-09-11T13:26:55.335Z,3.03
2022-09-11T13:29:24.724Z,3.67
2022-09-11T13:31:52.498Z,3.15
2022-09-11T13:34:21.823Z,3.78
2022-09-11T13:36:54.584Z,3.03
2022-09-11T13:39:26.397Z,3.03
2022-09-11T13:41:59.735Z,3.45
2022-09-11T13:44:33.545Z,3.65
2022-09-11T13:47:01.486Z,3.08
2022-09-11T13:49:35.328Z,3.40
2022-09-11T13:52:06.103Z,2.83
2022-09-11T13:54:38.088Z,3.30
2022-09-11T13:57:16.762Z,3.20
2022-09-11T13:59:49.391Z,3.20
2022-09-11T14:02:40.532Z,2.97
2022-09-11T14:05:15.666Z,3.38
2022-09-11T14:07:47.519Z,2.90
2022-09-11T14:10:23.651Z,3.22
2022-09-11T14:12:57.070Z,3.13
2022-09-11T14:15:31.597Z,3.10
2022-09-11T14:18:02.809Z,2.90
2022-09-11T14:20:33.255Z,2.60
2022-09-11T14:23:06.150Z,3.25
2022-09-11T14:25:34.088Z,2.53
2022-09-11T14:28:03.435Z,2.60
2022-09-11T14:30:37.195Z,2.60
2022-09-11T14:33:22.946Z,2.50
2022-09-11T14:35:51.382Z,2.92
2022-09-11T14:38:20.765Z,2.78
2022-09-11T14:40:55.119Z,2.75
2022-09-11T14:43:26.980Z,2.80
2022-09-11T14:45:54.539Z,3.10
2022-09-11T14:48:22.807Z,3.40
2022-09-11T14:50:50.499Z,3.33
2022-09-11T14:53:20.287Z,4.18
2022-09-11T14:55:47.945Z,3.88
2022-09-11T14:58:16.117Z,3.80
2022-09-11T15:00:45.078Z,4.10
2022-09-11T15:03:13.059Z,3.80
2022-09-11T15:05:40.706Z,3.67
2022-09-11T15:08:08.736Z,4.33
2022-09-11T15:10:36.485Z,3.73
2022-09-11T15:13:04.303Z,3.80
2022-09-11T15:15:33.217Z,4.10
2022-09-11T15:18:02.266Z,4.20
2022-09-11T15:20:29.783Z,3.80
2022-09-11T15:22:57.689Z,3.80
2022-09-11T15:25:25.455Z,4.27
2022-09-11T15:27:53.300Z,3.80
2022-09-11T15:30:21.208Z,3.93
2022-09-11T15:32:49.332Z,4.00
2022-09-11T15:35:19.225Z,4.10
2022-09-11T15:37:47.613Z,3.73
2022-09-11T15:40:16.031Z,3.50
2022-09-11T15:42:43.601Z,3.73
2022-09-11T15:45:12.936Z,3.70
2022-09-11T15:47:40.927Z,3.77
2022-09-11T15:50:09.233Z,3.90
2022-09-11T15:52:38.795Z,3.70
2022-09-11T15:55:07.582Z,3.53
2022-09-11T15:57:36.689Z,3.70
2022-09-11T16:00:05.711Z,4.00
2022-09-11T16:02:34.228Z,3.60
2022-09-11T16:05:02.168Z,3.47
2022-09-11T16:07:29.736Z,3.57
2022-09-11T16:09:58.771Z,3.57
2022-09-11T16:12:26.433Z,3.53
2022-09-11T16:14:54.237Z,3.60
2022-09-11T16:17:26.671Z,3.93
2022-09-11T16:19:54.237Z,3.60
2022-09-11T16:22:21.940Z,3.70
2022-09-11T16:24:49.580Z,3.50
2022-09-11T16:27:18.478Z,3.60
2022-09-11T16:32:38.007Z,3.47
2022-09-11T16:35:06.756Z,3.47
2022-09-11T16:37:35.235Z,3.87
2022-09-11T16:40:04.068Z,4.00
2022-09-11T16:42:33.121Z,3.60
2022-09-11T16:45:00.652Z,3.93
2022-09-11T16:47:30.268Z,3.70
2022-09-11T16:50:13.331Z,3.87
2022-09-11T16:52:40.900Z,3.73
2022-09-11T16:55:10.509Z,3.53
2022-09-11T16:57:39.634Z,3.90
2022-09-11T17:00:09.186Z,3.90
2022-09-11T17:02:37.428Z,3.60
2022-09-11T17:05:05.497Z,3.97
2022-09-11T17:07:33.112Z,3.50
2022-09-11T17:10:00.725Z,4.00
2022-09-11T17:12:28.375Z,3.57
2022-09-11T17:14:57.303Z,4.00
2022-09-11T17:17:25.240Z,3.43
2022-09-11T17:19:52.838Z,3.93
2022-09-11T17:22:20.415Z,3.77
2022-09-11T17:24:47.942Z,3.80
2022-09-11T17:27:15.485Z,3.97
2022-09-11T17:29:44.728Z,3.67
2022-09-11T17:32:27.699Z,3.90
2022-09-11T17:34:55.712Z,4.13
2022-09-11T17:37:23.255Z,3.97
2022-09-11T17:39:50.938Z,4.50
2022-09-11T17:42:18.594Z,3.67
2022-09-11T17:44:46.146Z,4.10
2022-09-11T17:47:15.050Z,4.23
2022-09-11T17:49:42.966Z,4.07
2022-09-11T17:52:10.574Z,4.00
2022-09-11T17:54:39.014Z,4.23
2022-09-11T17:57:06.763Z,4.10
2022-09-11T17:59:34.408Z,3.70
2022-09-11T18:02:02.110Z,3.70
2022-09-11T18:04:31.223Z,3.83
2022-09-11T18:06:59.006Z,4.07
2022-09-11T18:09:26.644Z,4.30
2022-09-11T18:11:54.767Z,3.87
2022-09-11T18:14:22.877Z,4.07
2022-09-11T18:16:50.481Z,4.37
2022-09-11T18:19:20.149Z,4.33
2022-09-11T18:21:50.501Z,3.93
2022-09-11T18:24:20.523Z,4.63
2022-09-11T18:26:49.941Z,4.67
2022-09-11T18:29:20.127Z,4.53
2022-09-11T18:31:50.141Z,4.70
2022-09-11T18:34:19.787Z,4.60
2022-09-11T18:36:49.008Z,4.50
2022-09-11T18:39:18.545Z,5.20
2022-09-11T18:41:46.846Z,4.53
2022-09-11T18:44:19.415Z,4.47
2022-09-11T18:46:48.354Z,4.70
2022-09-11T18:49:16.907Z,4.57
2022-09-11T18:51:44.587Z,4.63
2022-09-11T18:54:15.562Z,4.07
2022-09-11T18:56:43.640Z,4.57
2022-09-11T18:59:11.407Z,4.70
2022-09-11T19:01:39.868Z,4.60
2022-09-11T19:04:10.121Z,4.83
2022-09-11T19:06:39.559Z,4.77
2022-09-11T19:09:10.152Z,4.63
2022-09-11T19:11:39.107Z,4.67
2022-09-11T19:14:08.031Z,4.53
2022-09-11T19:16:35.914Z,4.30
2022-09-11T19:19:03.967Z,4.07
2022-09-11T19:21:31.725Z,4.37
2022-09-11T19:24:01.028Z,4.20
2022-09-11T19:26:30.557Z,4.40
2022-09-11T19:29:00.662Z,3.77
2022-09-11T19:31:30.061Z,4.73
2022-09-11T19:34:00.220Z,4.90
2022-09-11T19:36:29.924Z,4.90
2022-09-11T19:39:00.428Z,5.07
2022-09-11T19:41:30.217Z,4.90
2022-09-11T19:44:01.506Z,4.47
2022-09-11T19:46:30.571Z,4.63
2022-09-11T19:49:00.503Z,4.73
2022-09-11T19:51:30.469Z,4.57
2022-09-11T19:54:00.571Z,4.87
2022-09-11T19:56:28.776Z,4.80
2022-09-11T19:58:56.696Z,4.53
2022-09-11T20:01:27.101Z,4.27
2022-09-11T20:03:55.568Z,4.47
2022-09-11T20:06:26.013Z,4.43
2022-09-11T20:09:07.998Z,5.07
2022-09-11T20:11:42.598Z,4.90
2022-09-11T20:14:10.640Z,5.17
2022-09-11T20:16:39.643Z,4.70
2022-09-11T20:19:07.235Z,5.07
2022-09-11T20:21:36.051Z,5.23
2022-09-11T20:24:05.228Z,5.13
2022-09-11T20:26:33.538Z,5.27
2022-09-11T20:29:02.354Z,5.17
2022-09-11T20:31:31.761Z,4.93
2022-09-11T20:34:00.954Z,4.77
2022-09-11T20:36:29.986Z,4.70
2022-09-11T20:39:00.632Z,4.53
2022-09-11T20:41:30.126Z,4.83
2022-09-11T20:43:58.225Z,5.80
2022-09-11T20:46:26.370Z,5.33
2022-09-11T20:48:54.671Z,5.60
2022-09-11T20:51:24.063Z,5.20
2022-09-11T20:53:52.155Z,5.33
2022-09-11T20:56:22.354Z,5.33
2022-09-11T20:58:50.066Z,5.03
2022-09-11T21:01:19.594Z,5.60
2022-09-11T21:03:48.465Z,5.77
2022-09-11T21:06:16.011Z,5.50
2022-09-11T21:08:45.213Z,5.47
2022-09-11T21:11:13.213Z,5.50
2022-09-11T21:13:41.728Z,5.63
2022-09-11T21:16:11.476Z,5.90
2022-09-11T21:18:39.933Z,5.60
2022-09-11T21:21:08.224Z,5.53
2022-09-11T21:23:35.794Z,4.90
2022-09-11T21:26:07.835Z,5.27
2022-09-11T21:28:35.670Z,5.10
2022-09-11T21:31:03.282Z,5.87
2022-09-11T21:33:31.099Z,6.17
2022-09-11T21:35:58.692Z,6.47
2022-09-11T21:38:29.572Z,6.17
2022-09-11T21:40:57.634Z,6.33
2022-09-11T21:43:26.866Z,6.67
2022-09-11T21:45:55.205Z,7.13
2022-09-11T21:48:22.956Z,6.33
2022-09-11T21:50:51.178Z,5.60
2022-09-11T21:53:18.929Z,7.00
2022-09-11T21:55:48.429Z,5.90
2022-09-11T21:58:18.310Z,6.10
2022-09-11T22:00:48.075Z,6.30
2022-09-11T22:03:18.453Z,6.53
2022-09-11T22:05:48.914Z,6.70
2022-09-11T22:08:18.390Z,7.10
2022-09-11T22:10:48.660Z,6.77
2022-09-11T22:13:16.687Z,6.47
2022-09-11T22:15:45.615Z,6.23
2022-09-11T22:18:15.323Z,6.03
2022-09-11T22:20:42.934Z,6.47
2022-09-11T22:23:14.647Z,6.73
2022-09-11T22:25:42.245Z,6.90
2022-09-11T22:28:09.991Z,6.67
2022-09-11T22:30:41.909Z,6.87
2022-09-11T22:33:10.011Z,6.57
2022-09-11T22:35:39.392Z,7.47
2022-09-11T22:38:06.935Z,7.73
2022-09-11T22:40:34.779Z,7.73
2022-09-11T22:43:02.444Z,8.40
2022-09-11T22:45:30.081Z,7.93
2022-09-11T22:47:58.055Z,8.80
2022-09-11T22:50:26.153Z,8.57
2022-09-11T22:52:55.304Z,8.43
2022-09-11T22:55:22.845Z,9.03
2022-09-11T22:57:50.697Z,9.60
2022-09-11T23:00:19.938Z,9.30
2022-09-11T23:02:47.531Z,9.63
2022-09-11T23:05:32.511Z,9.33
2022-09-11T23:08:01.491Z,9.33
2022-09-11T23:10:29.108Z,9.80
2022-09-11T23:12:56.848Z,9.57
2022-09-11T23:15:24.618Z,9.47
2022-09-11T23:17:52.130Z,9.47
2022-09-11T23:20:19.847Z,10.03
2022-09-11T23:22:47.465Z,9.80
2022-09-11T23:25:16.531Z,10.57
2022-09-11T23:27:45.317Z,11.03
2022-09-11T23:30:13.743Z,10.50
2022-09-11T23:32:42.103Z,9.93
2022-09-11T23:35:10.839Z,11.03
2022-09-11T23:37:43.553Z,10.13
2022-09-11T23:40:12.971Z,10.23
2022-09-11T23:42:42.019Z,10.13
2022-09-11T23:45:12.592Z,11.23
2022-09-11T23:47:40.723Z,11.57
2022-09-11T23:50:09.464Z,10.73
2022-09-11T23:52:39.374Z,10.80
2022-09-11T23:55:08.073Z,11.93
2022-09-11T23:57:35.657Z,11.90
